sensor_id;sensor_type;location;lat;lon;timestamp;P1;durP1;ratioP1;P2;durP2;ratioP2
58208;SDS011;44006;52.028;4.696;2022-11-15T00:01:20;97.60;;;39.67;;
58208;SDS011;44006;52.028;4.696;2022-11-15T00:03:50;91.65;;;39.58;;
58208;SDS011;44006;52.028;4.696;2022-11-15T00:06:16;90.75;;;40.78;;
58208;SDS011;44006;52.028;4.696;2022-11-15T00:08:41;80.65;;;37.75;;
58208;SDS011;44006;52.028;4.696;2022-11-15T00:11:08;89.50;;;39.75;;
58208;SDS011;44006;52.028;4.696;2022-11-15T00:13:34;89.70;;;39.92;;
58208;SDS011;44006;52.028;4.696;2022-11-15T00:16:00;92.45;;;39.15;;
58208;SDS011;44006;52.028;4.696;2022-11-15T00:18:26;89.82;;;39.70;;
58208;SDS011;44006;52.028;4.696;2022-11-15T00:20:51;90.82;;;40.15;;
58208;SDS011;44006;52.028;4.696;2022-11-15T00:23:16;88.43;;;38.70;;
58208;SDS011;44006;52.028;4.696;2022-11-15T00:25:42;96.00;;;40.65;;
58208;SDS011;44006;52.028;4.696;2022-11-15T00:28:08;91.90;;;39.83;;
58208;SDS011;44006;52.028;4.696;2022-11-15T00:30:34;96.38;;;39.85;;
58208;SDS011;44006;52.028;4.696;2022-11-15T00:33:05;99.57;;;40.13;;
58208;SDS011;44006;52.028;4.696;2022-11-15T00:35:33;102.25;;;42.08;;
58208;SDS011;44006;52.028;4.696;2022-11-15T00:37:59;98.57;;;40.47;;
58208;SDS011;44006;52.028;4.696;2022-11-15T00:40:25;106.50;;;43.35;;
58208;SDS011;44006;52.028;4.696;2022-11-15T00:42:50;94.45;;;40.45;;
58208;SDS011;44006;52.028;4.696;2022-11-15T00:45:16;92.13;;;39.30;;
58208;SDS011;44006;52.028;4.696;2022-11-15T00:47:44;103.95;;;41.90;;
58208;SDS011;44006;52.028;4.696;2022-11-15T00:50:09;91.57;;;40.42;;
58208;SDS011;44006;52.028;4.696;2022-11-15T00:52:36;98.60;;;40.00;;
58208;SDS011;44006;52.028;4.696;2022-11-15T00:55:01;100.85;;;40.47;;
58208;SDS011;44006;52.028;4.696;2022-11-15T00:57:30;97.93;;;40.67;;
58208;SDS011;44006;52.028;4.696;2022-11-15T00:59:55;99.57;;;40.83;;
58208;SDS011;44006;52.028;4.696;2022-11-15T01:02:20;98.45;;;41.33;;
58208;SDS011;44006;52.028;4.696;2022-11-15T01:04:45;99.55;;;42.50;;
58208;SDS011;44006;52.028;4.696;2022-11-15T01:07:11;97.22;;;41.42;;
58208;SDS011;44006;52.028;4.696;2022-11-15T01:09:36;101.20;;;42.13;;
58208;SDS011;44006;52.028;4.696;2022-11-15T01:12:01;110.88;;;42.78;;
58208;SDS011;44006;52.028;4.696;2022-11-15T01:14:26;103.55;;;42.03;;
58208;SDS011;44006;52.028;4.696;2022-11-15T01:16:51;109.05;;;42.92;;
58208;SDS011;44006;52.028;4.696;2022-11-15T01:19:17;111.30;;;45.67;;
58208;SDS011;44006;52.028;4.696;2022-11-15T01:21:42;103.55;;;42.15;;
58208;SDS011;44006;52.028;4.696;2022-11-15T01:24:08;109.10;;;40.50;;
58208;SDS011;44006;52.028;4.696;2022-11-15T01:26:36;114.80;;;41.58;;
58208;SDS011;44006;52.028;4.696;2022-11-15T01:29:01;126.32;;;42.75;;
58208;SDS011;44006;52.028;4.696;2022-11-15T01:31:27;113.28;;;43.80;;
58208;SDS011;44006;52.028;4.696;2022-11-15T01:33:52;130.02;;;45.45;;
58208;SDS011;44006;52.028;4.696;2022-11-15T01:36:18;114.90;;;42.95;;
58208;SDS011;44006;52.028;4.696;2022-11-15T01:38:45;118.93;;;44.90;;
58208;SDS011;44006;52.028;4.696;2022-11-15T01:41:16;115.50;;;45.60;;
58208;SDS011;44006;52.028;4.696;2022-11-15T01:43:42;115.35;;;44.95;;
58208;SDS011;44006;52.028;4.696;2022-11-15T01:48:36;116.05;;;46.58;;
58208;SDS011;44006;52.028;4.696;2022-11-15T01:51:02;116.72;;;45.70;;
58208;SDS011;44006;52.028;4.696;2022-11-15T01:53:30;121.82;;;45.83;;
58208;SDS011;44006;52.028;4.696;2022-11-15T01:55:56;113.40;;;43.33;;
58208;SDS011;44006;52.028;4.696;2022-11-15T01:58:22;116.53;;;44.20;;
58208;SDS011;44006;52.028;4.696;2022-11-15T02:00:48;122.75;;;44.63;;
58208;SDS011;44006;52.028;4.696;2022-11-15T02:03:14;114.93;;;45.33;;
58208;SDS011;44006;52.028;4.696;2022-11-15T02:05:40;117.75;;;45.92;;
58208;SDS011;44006;52.028;4.696;2022-11-15T02:08:06;109.22;;;42.83;;
58208;SDS011;44006;52.028;4.696;2022-11-15T02:10:32;119.70;;;45.22;;
58208;SDS011;44006;52.028;4.696;2022-11-15T02:12:58;114.97;;;43.92;;
58208;SDS011;44006;52.028;4.696;2022-11-15T02:15:25;113.72;;;44.30;;
58208;SDS011;44006;52.028;4.696;2022-11-15T02:18:01;111.90;;;43.70;;
58208;SDS011;44006;52.028;4.696;2022-11-15T02:30:52;113.25;;;43.08;;
58208;SDS011;44006;52.028;4.696;2022-11-15T02:36:00;104.13;;;43.13;;
58208;SDS011;44006;52.028;4.696;2022-11-15T02:38:46;105.30;;;44.80;;
58208;SDS011;44006;52.028;4.696;2022-11-15T02:41:16;110.00;;;43.40;;
58208;SDS011;44006;52.028;4.696;2022-11-15T02:43:45;110.93;;;41.87;;
58208;SDS011;44006;52.028;4.696;2022-11-15T02:49:11;103.65;;;41.58;;
58208;SDS011;44006;52.028;4.696;2022-11-15T02:51:36;98.60;;;41.78;;
58208;SDS011;44006;52.028;4.696;2022-11-15T02:54:02;111.35;;;42.03;;
58208;SDS011;44006;52.028;4.696;2022-11-15T02:56:28;108.43;;;44.40;;
58208;SDS011;44006;52.028;4.696;2022-11-15T03:07:11;102.20;;;42.67;;
58208;SDS011;44006;52.028;4.696;2022-11-15T03:09:35;112.18;;;45.45;;
58208;SDS011;44006;52.028;4.696;2022-11-15T03:12:06;99.63;;;42.65;;
58208;SDS011;44006;52.028;4.696;2022-11-15T03:14:33;90.07;;;39.38;;
58208;SDS011;44006;52.028;4.696;2022-11-15T03:21:53;91.68;;;41.63;;
58208;SDS011;44006;52.028;4.696;2022-11-15T03:24:20;95.40;;;41.70;;
58208;SDS011;44006;52.028;4.696;2022-11-15T03:26:45;106.18;;;43.35;;
58208;SDS011;44006;52.028;4.696;2022-11-15T03:29:13;91.20;;;41.50;;
58208;SDS011;44006;52.028;4.696;2022-11-15T03:31:41;93.97;;;40.67;;
58208;SDS011;44006;52.028;4.696;2022-11-15T03:34:16;93.53;;;43.47;;
58208;SDS011;44006;52.028;4.696;2022-11-15T03:36:44;83.75;;;40.50;;
58208;SDS011;44006;52.028;4.696;2022-11-15T03:39:10;75.82;;;39.00;;
58208;SDS011;44006;52.028;4.696;2022-11-15T03:44:10;80.43;;;38.08;;
58208;SDS011;44006;52.028;4.696;2022-11-15T03:46:46;79.35;;;36.83;;
58208;SDS011;44006;52.028;4.696;2022-11-15T03:49:13;72.47;;;38.42;;
58208;SDS011;44006;52.028;4.696;2022-11-15T03:51:39;75.32;;;37.45;;
58208;SDS011;44006;52.028;4.696;2022-11-15T03:54:05;72.57;;;38.20;;
58208;SDS011;44006;52.028;4.696;2022-11-15T03:56:30;81.60;;;38.38;;
58208;SDS011;44006;52.028;4.696;2022-11-15T03:58:56;77.32;;;37.53;;
58208;SDS011;44006;52.028;4.696;2022-11-15T04:01:21;69.50;;;35.13;;
58208;SDS011;44006;52.028;4.696;2022-11-15T04:03:46;65.25;;;34.95;;
58208;SDS011;44006;52.028;4.696;2022-11-15T04:06:11;70.07;;;34.95;;
58208;SDS011;44006;52.028;4.696;2022-11-15T04:08:36;64.80;;;33.05;;
58208;SDS011;44006;52.028;4.696;2022-11-15T04:11:02;61.45;;;32.97;;
58208;SDS011;44006;52.028;4.696;2022-11-15T04:13:28;61.85;;;33.15;;
58208;SDS011;44006;52.028;4.696;2022-11-15T04:15:53;61.53;;;32.80;;
58208;SDS011;44006;52.028;4.696;2022-11-15T04:18:18;59.58;;;30.90;;
58208;SDS011;44006;52.028;4.696;2022-11-15T04:20:44;55.00;;;30.38;;
58208;SDS011;44006;52.028;4.696;2022-11-15T04:23:28;59.17;;;31.15;;
58208;SDS011;44006;52.028;4.696;2022-11-15T04:26:16;54.40;;;30.95;;
58208;SDS011;44006;52.028;4.696;2022-11-15T04:28:42;57.42;;;31.25;;
58208;SDS011;44006;52.028;4.696;2022-11-15T04:31:26;48.40;;;28.60;;
58208;SDS011;44006;52.028;4.696;2022-11-15T04:33:52;55.78;;;29.63;;
58208;SDS011;44006;52.028;4.696;2022-11-15T04:36:18;51.83;;;28.27;;
58208;SDS011;44006;52.028;4.696;2022-11-15T04:39:02;47.08;;;27.20;;
58208;SDS011;44006;52.028;4.696;2022-11-15T04:41:28;46.63;;;26.95;;
58208;SDS011;44006;52.028;4.696;2022-11-15T04:43:54;50.65;;;28.60;;
58208;SDS011;44006;52.028;4.696;2022-11-15T04:46:19;46.92;;;26.63;;
58208;SDS011;44006;52.028;4.696;2022-11-15T04:48:45;48.00;;;28.33;;
58208;SDS011;44006;52.028;4.696;2022-11-15T04:51:10;44.50;;;26.55;;
58208;SDS011;44006;52.028;4.696;2022-11-15T04:53:35;50.67;;;27.60;;
58208;SDS011;44006;52.028;4.696;2022-11-15T04:56:02;44.07;;;27.43;;
58208;SDS011;44006;52.028;4.696;2022-11-15T04:58:27;49.92;;;27.70;;
58208;SDS011;44006;52.028;4.696;2022-11-15T05:00:52;53.70;;;28.05;;
58208;SDS011;44006;52.028;4.696;2022-11-15T05:03:17;45.20;;;27.37;;
58208;SDS011;44006;52.028;4.696;2022-11-15T05:06:01;43.10;;;28.10;;
58208;SDS011;44006;52.028;4.696;2022-11-15T05:08:27;44.80;;;26.48;;
58208;SDS011;44006;52.028;4.696;2022-11-15T05:10:53;45.83;;;27.40;;
58208;SDS011;44006;52.028;4.696;2022-11-15T05:13:18;49.85;;;26.80;;
58208;SDS011;44006;52.028;4.696;2022-11-15T05:15:43;43.95;;;25.50;;
58208;SDS011;44006;52.028;4.696;2022-11-15T05:18:10;46.83;;;25.38;;
58208;SDS011;44006;52.028;4.696;2022-11-15T05:20:36;51.63;;;27.65;;
58208;SDS011;44006;52.028;4.696;2022-11-15T05:23:02;48.80;;;26.17;;
58208;SDS011;44006;52.028;4.696;2022-11-15T05:25:29;49.40;;;26.42;;
58208;SDS011;44006;52.028;4.696;2022-11-15T05:27:55;47.67;;;25.35;;
58208;SDS011;44006;52.028;4.696;2022-11-15T05:30:20;43.95;;;25.13;;
58208;SDS011;44006;52.028;4.696;2022-11-15T05:32:45;43.10;;;25.38;;
58208;SDS011;44006;52.028;4.696;2022-11-15T05:35:54;50.13;;;26.48;;
58208;SDS011;44006;52.028;4.696;2022-11-15T05:38:00;49.50;;;26.13;;
58208;SDS011;44006;52.028;4.696;2022-11-15T05:40:26;47.05;;;25.38;;
58208;SDS011;44006;52.028;4.696;2022-11-15T05:42:51;39.55;;;23.60;;
58208;SDS011;44006;52.028;4.696;2022-11-15T05:45:17;38.90;;;22.55;;
58208;SDS011;44006;52.028;4.696;2022-11-15T05:47:42;38.50;;;22.35;;
58208;SDS011;44006;52.028;4.696;2022-11-15T05:50:07;43.60;;;22.70;;
58208;SDS011;44006;52.028;4.696;2022-11-15T05:52:37;37.72;;;21.05;;
58208;SDS011;44006;52.028;4.696;2022-11-15T05:55:03;36.88;;;21.30;;
58208;SDS011;44006;52.028;4.696;2022-11-15T05:57:29;36.05;;;20.30;;
58208;SDS011;44006;52.028;4.696;2022-11-15T05:59:54;34.10;;;19.53;;
58208;SDS011;44006;52.028;4.696;2022-11-15T06:02:21;34.53;;;20.20;;
58208;SDS011;44006;52.028;4.696;2022-11-15T06:04:46;41.53;;;20.45;;
58208;SDS011;44006;52.028;4.696;2022-11-15T06:07:11;38.60;;;19.90;;
58208;SDS011;44006;52.028;4.696;2022-11-15T06:09:36;36.55;;;19.33;;
58208;SDS011;44006;52.028;4.696;2022-11-15T06:12:02;34.07;;;18.87;;
58208;SDS011;44006;52.028;4.696;2022-11-15T06:14:28;40.53;;;19.13;;
58208;SDS011;44006;52.028;4.696;2022-11-15T06:16:54;32.40;;;19.47;;
58208;SDS011;44006;52.028;4.696;2022-11-15T06:19:19;41.70;;;19.88;;
58208;SDS011;44006;52.028;4.696;2022-11-15T06:21:44;34.30;;;17.83;;
58208;SDS011;44006;52.028;4.696;2022-11-15T06:24:10;29.50;;;17.27;;
58208;SDS011;44006;52.028;4.696;2022-11-15T06:26:36;31.40;;;16.30;;
58208;SDS011;44006;52.028;4.696;2022-11-15T06:29:02;29.33;;;16.70;;
58208;SDS011;44006;52.028;4.696;2022-11-15T06:31:27;26.17;;;14.88;;
58208;SDS011;44006;52.028;4.696;2022-11-15T06:33:52;28.20;;;15.52;;
58208;SDS011;44006;52.028;4.696;2022-11-15T06:36:18;30.57;;;15.40;;
58208;SDS011;44006;52.028;4.696;2022-11-15T06:38:43;24.77;;;14.70;;
58208;SDS011;44006;52.028;4.696;2022-11-15T06:41:09;31.77;;;15.70;;
58208;SDS011;44006;52.028;4.696;2022-11-15T06:43:35;28.23;;;14.00;;
58208;SDS011;44006;52.028;4.696;2022-11-15T06:46:02;32.75;;;15.20;;
58208;SDS011;44006;52.028;4.696;2022-11-15T06:48:28;32.78;;;14.13;;
58208;SDS011;44006;52.028;4.696;2022-11-15T06:50:54;28.60;;;14.45;;
58208;SDS011;44006;52.028;4.696;2022-11-15T06:53:19;26.00;;;13.88;;
58208;SDS011;44006;52.028;4.696;2022-11-15T06:55:45;25.88;;;13.15;;
58208;SDS011;44006;52.028;4.696;2022-11-15T06:58:10;24.35;;;13.65;;
58208;SDS011;44006;52.028;4.696;2022-11-15T07:00:35;23.88;;;13.75;;
58208;SDS011;44006;52.028;4.696;2022-11-15T07:03:01;25.70;;;13.30;;
58208;SDS011;44006;52.028;4.696;2022-11-15T07:05:26;22.48;;;12.73;;
58208;SDS011;44006;52.028;4.696;2022-11-15T07:07:56;22.45;;;12.73;;
58208;SDS011;44006;52.028;4.696;2022-11-15T07:10:22;27.98;;;13.52;;
58208;SDS011;44006;52.028;4.696;2022-11-15T07:12:50;29.10;;;13.13;;
58208;SDS011;44006;52.028;4.696;2022-11-15T07:15:16;24.17;;;12.00;;
58208;SDS011;44006;52.028;4.696;2022-11-15T07:17:43;25.42;;;12.98;;
58208;SDS011;44006;52.028;4.696;2022-11-15T07:20:09;27.80;;;13.32;;
58208;SDS011;44006;52.028;4.696;2022-11-15T07:22:36;25.83;;;12.68;;
58208;SDS011;44006;52.028;4.696;2022-11-15T07:25:03;23.70;;;11.85;;
58208;SDS011;44006;52.028;4.696;2022-11-15T07:27:28;23.48;;;11.32;;
58208;SDS011;44006;52.028;4.696;2022-11-15T07:29:53;28.40;;;12.32;;
58208;SDS011;44006;52.028;4.696;2022-11-15T07:32:19;22.15;;;11.38;;
58208;SDS011;44006;52.028;4.696;2022-11-15T07:34:44;26.48;;;9.93;;
58208;SDS011;44006;52.028;4.696;2022-11-15T07:37:11;23.25;;;10.05;;
58208;SDS011;44006;52.028;4.696;2022-11-15T07:39:37;19.73;;;9.43;;
58208;SDS011;44006;52.028;4.696;2022-11-15T07:42:02;20.83;;;10.32;;
58208;SDS011;44006;52.028;4.696;2022-11-15T07:44:48;19.88;;;9.80;;
58208;SDS011;44006;52.028;4.696;2022-11-15T07:47:13;19.52;;;10.80;;
58208;SDS011;44006;52.028;4.696;2022-11-15T07:49:38;21.17;;;11.85;;
58208;SDS011;44006;52.028;4.696;2022-11-15T07:52:03;29.02;;;14.68;;
58208;SDS011;44006;52.028;4.696;2022-11-15T07:54:28;25.42;;;14.30;;
58208;SDS011;44006;52.028;4.696;2022-11-15T07:56:54;27.47;;;16.87;;
58208;SDS011;44006;52.028;4.696;2022-11-15T07:59:19;25.80;;;16.23;;
58208;SDS011;44006;52.028;4.696;2022-11-15T08:01:44;29.50;;;17.50;;
58208;SDS011;44006;52.028;4.696;2022-11-15T08:04:10;28.10;;;17.50;;
58208;SDS011;44006;52.028;4.696;2022-11-15T08:06:36;31.17;;;17.63;;
58208;SDS011;44006;52.028;4.696;2022-11-15T08:09:01;31.92;;;17.70;;
58208;SDS011;44006;52.028;4.696;2022-11-15T08:11:26;31.20;;;17.50;;
58208;SDS011;44006;52.028;4.696;2022-11-15T08:13:51;29.23;;;18.00;;
58208;SDS011;44006;52.028;4.696;2022-11-15T08:16:17;28.70;;;16.75;;
58208;SDS011;44006;52.028;4.696;2022-11-15T08:18:42;34.10;;;17.52;;
58208;SDS011;44006;52.028;4.696;2022-11-15T08:21:09;29.73;;;16.35;;
58208;SDS011;44006;52.028;4.696;2022-11-15T08:23:35;28.95;;;16.10;;
58208;SDS011;44006;52.028;4.696;2022-11-15T08:26:02;26.02;;;16.67;;
58208;SDS011;44006;52.028;4.696;2022-11-15T08:28:29;28.85;;;16.30;;
58208;SDS011;44006;52.028;4.696;2022-11-15T08:30:54;25.75;;;15.30;;
58208;SDS011;44006;52.028;4.696;2022-11-15T08:33:20;30.73;;;16.40;;
58208;SDS011;44006;52.028;4.696;2022-11-15T08:35:45;26.67;;;15.60;;
58208;SDS011;44006;52.028;4.696;2022-11-15T08:38:10;24.25;;;15.73;;
58208;SDS011;44006;52.028;4.696;2022-11-15T08:40:36;30.00;;;16.77;;
58208;SDS011;44006;52.028;4.696;2022-11-15T08:43:01;30.38;;;15.45;;
58208;SDS011;44006;52.028;4.696;2022-11-15T08:45:28;25.70;;;14.60;;
58208;SDS011;44006;52.028;4.696;2022-11-15T08:47:53;27.20;;;14.52;;
58208;SDS011;44006;52.028;4.696;2022-11-15T08:50:19;30.48;;;14.43;;
58208;SDS011;44006;52.028;4.696;2022-11-15T08:52:45;28.10;;;14.43;;
58208;SDS011;44006;52.028;4.696;2022-11-15T08:55:11;21.75;;;12.70;;
58208;SDS011;44006;52.028;4.696;2022-11-15T08:57:36;27.35;;;13.75;;
58208;SDS011;44006;52.028;4.696;2022-11-15T09:00:03;23.13;;;13.43;;
58208;SDS011;44006;52.028;4.696;2022-11-15T09:02:28;26.02;;;13.80;;
58208;SDS011;44006;52.028;4.696;2022-11-15T09:04:54;22.48;;;13.93;;
58208;SDS011;44006;52.028;4.696;2022-11-15T09:07:20;22.20;;;13.93;;
58208;SDS011;44006;52.028;4.696;2022-11-15T09:09:46;25.77;;;13.60;;
58208;SDS011;44006;52.028;4.696;2022-11-15T09:12:11;21.65;;;13.25;;
58208;SDS011;44006;52.028;4.696;2022-11-15T09:14:37;21.83;;;12.65;;
58208;SDS011;44006;52.028;4.696;2022-11-15T09:17:03;26.42;;;14.45;;
58208;SDS011;44006;52.028;4.696;2022-11-15T09:19:28;24.02;;;13.25;;
58208;SDS011;44006;52.028;4.696;2022-11-15T09:21:55;20.48;;;12.52;;
58208;SDS011;44006;52.028;4.696;2022-11-15T09:24:21;20.95;;;12.95;;
58208;SDS011;44006;52.028;4.696;2022-11-15T09:26:49;24.58;;;13.20;;
58208;SDS011;44006;52.028;4.696;2022-11-15T09:29:15;21.02;;;12.95;;
58208;SDS011;44006;52.028;4.696;2022-11-15T09:31:40;22.58;;;13.25;;
58208;SDS011;44006;52.028;4.696;2022-11-15T09:34:06;23.08;;;13.30;;
58208;SDS011;44006;52.028;4.696;2022-11-15T09:36:32;20.27;;;12.40;;
58208;SDS011;44006;52.028;4.696;2022-11-15T09:38:57;21.50;;;13.70;;
58208;SDS011;44006;52.028;4.696;2022-11-15T09:41:48;16.92;;;11.52;;
58208;SDS011;44006;52.028;4.696;2022-11-15T09:49:22;16.58;;;10.90;;
58208;SDS011;44006;52.028;4.696;2022-11-15T09:51:49;16.23;;;10.30;;
58208;SDS011;44006;52.028;4.696;2022-11-15T09:56:47;15.73;;;9.15;;
58208;SDS011;44006;52.028;4.696;2022-11-15T10:02:40;19.63;;;8.95;;
58208;SDS011;44006;52.028;4.696;2022-11-15T10:04:37;18.13;;;9.23;;
58208;SDS011;44006;52.028;4.696;2022-11-15T10:10:04;14.50;;;7.80;;
58208;SDS011;44006;52.028;4.696;2022-11-15T10:12:32;12.88;;;7.65;;
58208;SDS011;44006;52.028;4.696;2022-11-15T10:15:06;11.95;;;7.50;;
58208;SDS011;44006;52.028;4.696;2022-11-15T10:22:43;15.20;;;6.88;;
58208;SDS011;44006;52.028;4.696;2022-11-15T10:27:34;11.33;;;6.03;;
58208;SDS011;44006;52.028;4.696;2022-11-15T10:30:00;13.05;;;6.55;;
58208;SDS011;44006;52.028;4.696;2022-11-15T10:32:26;12.80;;;6.70;;
58208;SDS011;44006;52.028;4.696;2022-11-15T10:34:51;12.38;;;6.18;;
58208;SDS011;44006;52.028;4.696;2022-11-15T10:37:28;10.68;;;5.32;;
58208;SDS011;44006;52.028;4.696;2022-11-15T10:40:14;16.40;;;5.90;;
58208;SDS011;44006;52.028;4.696;2022-11-15T10:42:41;12.68;;;5.32;;
58208;SDS011;44006;52.028;4.696;2022-11-15T10:45:27;11.85;;;4.95;;
58208;SDS011;44006;52.028;4.696;2022-11-15T10:47:55;13.00;;;5.40;;
58208;SDS011;44006;52.028;4.696;2022-11-15T10:50:40;8.57;;;4.53;;
58208;SDS011;44006;52.028;4.696;2022-11-15T10:53:19;10.73;;;4.65;;
58208;SDS011;44006;52.028;4.696;2022-11-15T10:55:48;11.00;;;4.90;;
58208;SDS011;44006;52.028;4.696;2022-11-15T10:58:34;9.50;;;3.95;;
58208;SDS011;44006;52.028;4.696;2022-11-15T11:01:11;15.95;;;4.32;;
58208;SDS011;44006;52.028;4.696;2022-11-15T11:03:37;9.70;;;4.28;;
58208;SDS011;44006;52.028;4.696;2022-11-15T11:06:07;9.82;;;4.13;;
58208;SDS011;44006;52.028;4.696;2022-11-15T11:08:34;11.15;;;4.75;;
58208;SDS011;44006;52.028;4.696;2022-11-15T11:11:01;7.82;;;3.70;;
58208;SDS011;44006;52.028;4.696;2022-11-15T11:13:31;8.55;;;4.15;;
58208;SDS011;44006;52.028;4.696;2022-11-15T11:18:38;7.72;;;4.03;;
58208;SDS011;44006;52.028;4.696;2022-11-15T11:21:08;9.60;;;3.60;;
58208;SDS011;44006;52.028;4.696;2022-11-15T11:33:54;8.48;;;3.53;;
58208;SDS011;44006;52.028;4.696;2022-11-15T11:44:28;10.02;;;3.30;;
58208;SDS011;44006;52.028;4.696;2022-11-15T11:49:38;10.05;;;2.95;;
58208;SDS011;44006;52.028;4.696;2022-11-15T11:52:11;7.88;;;2.25;;
58208;SDS011;44006;52.028;4.696;2022-11-15T11:54:40;10.60;;;2.72;;
58208;SDS011;44006;52.028;4.696;2022-11-15T11:57:51;10.70;;;2.53;;
58208;SDS011;44006;52.028;4.696;2022-11-15T12:00:09;10.02;;;3.03;;
58208;SDS011;44006;52.028;4.696;2022-11-15T12:02:38;10.88;;;2.47;;
58208;SDS011;44006;52.028;4.696;2022-11-15T12:05:15;7.10;;;2.55;;
58208;SDS011;44006;52.028;4.696;2022-11-15T12:07:43;9.85;;;2.60;;
58208;SDS011;44006;52.028;4.696;2022-11-15T12:10:22;8.02;;;2.40;;
58208;SDS011;44006;52.028;4.696;2022-11-15T12:18:18;8.30;;;2.53;;
58208;SDS011;44006;52.028;4.696;2022-11-15T12:21:02;6.35;;;2.22;;
58208;SDS011;44006;52.028;4.696;2022-11-15T12:23:32;7.68;;;2.72;;
58208;SDS011;44006;52.028;4.696;2022-11-15T12:26:16;7.33;;;2.10;;
58208;SDS011;44006;52.028;4.696;2022-11-15T12:28:57;10.27;;;2.30;;
58208;SDS011;44006;52.028;4.696;2022-11-15T12:31:30;5.30;;;2.05;;
58208;SDS011;44006;52.028;4.696;2022-11-15T12:34:04;7.47;;;1.75;;
58208;SDS011;44006;52.028;4.696;2022-11-15T12:36:38;12.30;;;2.08;;
58208;SDS011;44006;52.028;4.696;2022-11-15T12:41:30;10.18;;;1.75;;
58208;SDS011;44006;52.028;4.696;2022-11-15T12:43:58;7.32;;;2.42;;
58208;SDS011;44006;52.028;4.696;2022-11-15T12:48:56;10.18;;;1.85;;
58208;SDS011;44006;52.028;4.696;2022-11-15T12:51:23;10.10;;;1.85;;
58208;SDS011;44006;52.028;4.696;2022-11-15T13:02:19;6.63;;;1.77;;
58208;SDS011;44006;52.028;4.696;2022-11-15T13:04:46;9.90;;;1.85;;
58208;SDS011;44006;52.028;4.696;2022-11-15T13:09:56;10.93;;;2.10;;
58208;SDS011;44006;52.028;4.696;2022-11-15T13:14:54;7.13;;;1.80;;
58208;SDS011;44006;52.028;4.696;2022-11-15T13:19:49;8.33;;;1.77;;
58208;SDS011;44006;52.028;4.696;2022-11-15T13:22:17;9.23;;;1.70;;
58208;SDS011;44006;52.028;4.696;2022-11-15T13:25:01;7.68;;;1.55;;
58208;SDS011;44006;52.028;4.696;2022-11-15T13:27:26;9.60;;;1.80;;
58208;SDS011;44006;52.028;4.696;2022-11-15T13:29:52;10.18;;;1.63;;
58208;SDS011;44006;52.028;4.696;2022-11-15T13:32:17;11.18;;;1.88;;
58208;SDS011;44006;52.028;4.696;2022-11-15T13:34:44;11.10;;;1.88;;
58208;SDS011;44006;52.028;4.696;2022-11-15T13:37:32;7.40;;;1.40;;
58208;SDS011;44006;52.028;4.696;2022-11-15T13:40:09;3.72;;;1.42;;
58208;SDS011;44006;52.028;4.696;2022-11-15T13:42:36;3.60;;;1.40;;
58208;SDS011;44006;52.028;4.696;2022-11-15T13:45:03;5.70;;;1.52;;
58208;SDS011;44006;52.028;4.696;2022-11-15T13:47:29;9.65;;;2.20;;
58208;SDS011;44006;52.028;4.696;2022-11-15T13:52:30;8.98;;;1.50;;
58208;SDS011;44006;52.028;4.696;2022-11-15T13:59:52;5.65;;;1.67;;
58208;SDS011;44006;52.028;4.696;2022-11-15T14:02:24;6.63;;;1.58;;
58208;SDS011;44006;52.028;4.696;2022-11-15T14:04:51;7.55;;;1.35;;
58208;SDS011;44006;52.028;4.696;2022-11-15T14:07:21;7.00;;;1.67;;
58208;SDS011;44006;52.028;4.696;2022-11-15T14:09:48;9.82;;;1.60;;
58208;SDS011;44006;52.028;4.696;2022-11-15T14:12:27;8.13;;;1.63;;
58208;SDS011;44006;52.028;4.696;2022-11-15T14:14:55;8.00;;;1.50;;
58208;SDS011;44006;52.028;4.696;2022-11-15T14:17:21;6.38;;;1.30;;
58208;SDS011;44006;52.028;4.696;2022-11-15T14:19:57;6.38;;;1.33;;
58208;SDS011;44006;52.028;4.696;2022-11-15T14:27:35;3.70;;;1.30;;
58208;SDS011;44006;52.028;4.696;2022-11-15T14:30:01;5.60;;;2.05;;
58208;SDS011;44006;52.028;4.696;2022-11-15T14:32:29;5.88;;;1.20;;
58208;SDS011;44006;52.028;4.696;2022-11-15T14:35:01;7.78;;;1.73;;
58208;SDS011;44006;52.028;4.696;2022-11-15T14:37:32;4.30;;;1.30;;
58208;SDS011;44006;52.028;4.696;2022-11-15T14:40:01;5.13;;;1.35;;
58208;SDS011;44006;52.028;4.696;2022-11-15T14:42:28;6.70;;;1.42;;
58208;SDS011;44006;52.028;4.696;2022-11-15T14:44:53;6.53;;;1.40;;
58208;SDS011;44006;52.028;4.696;2022-11-15T14:47:19;6.55;;;1.52;;
58208;SDS011;44006;52.028;4.696;2022-11-15T14:49:44;5.70;;;1.10;;
58208;SDS011;44006;52.028;4.696;2022-11-15T14:54:44;3.80;;;1.10;;
58208;SDS011;44006;52.028;4.696;2022-11-15T14:57:09;7.20;;;1.60;;
58208;SDS011;44006;52.028;4.696;2022-11-15T14:59:34;4.00;;;1.40;;
58208;SDS011;44006;52.028;4.696;2022-11-15T15:02:01;9.48;;;2.00;;
58208;SDS011;44006;52.028;4.696;2022-11-15T15:04:26;6.95;;;1.48;;
58208;SDS011;44006;52.028;4.696;2022-11-15T15:06:53;4.40;;;1.35;;
58208;SDS011;44006;52.028;4.696;2022-11-15T15:09:18;4.75;;;1.52;;
58208;SDS011;44006;52.028;4.696;2022-11-15T15:11:43;7.47;;;1.40;;
58208;SDS011;44006;52.028;4.696;2022-11-15T15:14:09;5.10;;;1.50;;
58208;SDS011;44006;52.028;4.696;2022-11-15T15:16:37;7.68;;;1.27;;
58208;SDS011;44006;52.028;4.696;2022-11-15T15:19:04;6.00;;;1.27;;
58208;SDS011;44006;52.028;4.696;2022-11-15T15:21:30;8.45;;;1.65;;
58208;SDS011;44006;52.028;4.696;2022-11-15T15:23:58;8.30;;;1.35;;
58208;SDS011;44006;52.028;4.696;2022-11-15T15:26:23;7.10;;;1.50;;
58208;SDS011;44006;52.028;4.696;2022-11-15T15:28:51;3.85;;;1.50;;
58208;SDS011;44006;52.028;4.696;2022-11-15T15:31:17;4.35;;;1.33;;
58208;SDS011;44006;52.028;4.696;2022-11-15T15:33:45;3.92;;;1.45;;
58208;SDS011;44006;52.028;4.696;2022-11-15T15:36:14;3.22;;;1.20;;
58208;SDS011;44006;52.028;4.696;2022-11-15T15:38:42;6.78;;;1.80;;
58208;SDS011;44006;52.028;4.696;2022-11-15T15:41:09;6.70;;;1.77;;
58208;SDS011;44006;52.028;4.696;2022-11-15T15:43:34;4.22;;;1.20;;
58208;SDS011;44006;52.028;4.696;2022-11-15T15:46:00;6.22;;;1.70;;
58208;SDS011;44006;52.028;4.696;2022-11-15T15:48:25;4.63;;;1.50;;
58208;SDS011;44006;52.028;4.696;2022-11-15T15:50:50;3.60;;;1.38;;
58208;SDS011;44006;52.028;4.696;2022-11-15T15:53:15;5.55;;;1.67;;
58208;SDS011;44006;52.028;4.696;2022-11-15T15:55:43;7.30;;;1.40;;
58208;SDS011;44006;52.028;4.696;2022-11-15T15:58:08;4.20;;;1.83;;
58208;SDS011;44006;52.028;4.696;2022-11-15T16:00:34;7.72;;;1.70;;
58208;SDS011;44006;52.028;4.696;2022-11-15T16:03:01;9.05;;;1.92;;
58208;SDS011;44006;52.028;4.696;2022-11-15T16:05:26;4.78;;;1.80;;
58208;SDS011;44006;52.028;4.696;2022-11-15T16:07:52;8.30;;;2.10;;
58208;SDS011;44006;52.028;4.696;2022-11-15T16:12:45;5.82;;;1.90;;
58208;SDS011;44006;52.028;4.696;2022-11-15T16:15:13;7.95;;;2.08;;
58208;SDS011;44006;52.028;4.696;2022-11-15T16:17:39;8.55;;;1.90;;
58208;SDS011;44006;52.028;4.696;2022-11-15T16:20:08;6.53;;;1.95;;
58208;SDS011;44006;52.028;4.696;2022-11-15T16:22:39;4.22;;;1.98;;
58208;SDS011;44006;52.028;4.696;2022-11-15T16:25:04;5.83;;;1.80;;
58208;SDS011;44006;52.028;4.696;2022-11-15T16:27:30;4.93;;;2.08;;
58208;SDS011;44006;52.028;4.696;2022-11-15T16:29:56;6.47;;;2.13;;
58208;SDS011;44006;52.028;4.696;2022-11-15T16:32:21;6.40;;;2.03;;
58208;SDS011;44006;52.028;4.696;2022-11-15T16:34:47;6.68;;;2.55;;